createdAt,value
2019-03-08T00:02:19.481Z,97763.36
2019-03-08T00:04:48.812Z,97862.30
2019-03-08T00:07:18.095Z,97858.72
2019-03-08T00:09:47.722Z,97856.59
2019-03-08T00:15:25.629Z,97845.38
2019-03-08T00:17:57.600Z,97845.75
2019-03-08T00:20:26.913Z,97847.63
2019-03-08T00:22:56.430Z,97843.23
2019-03-08T00:25:25.727Z,97845.02
2019-03-08T00:27:57.605Z,97844.55
2019-03-08T00:30:28.195Z,97790.22
2019-03-08T00:32:57.501Z,97832.42
2019-03-08T00:35:26.856Z,97833.97
2019-03-08T00:37:56.227Z,97773.19
2019-03-08T00:40:44.596Z,97836.94
2019-03-08T00:43:14.132Z,97828.73
2019-03-08T00:45:43.484Z,97820.03
2019-03-08T00:48:12.995Z,97824.42
2019-03-08T00:53:36.941Z,97824.42
2019-03-08T00:56:06.243Z,97816.81
2019-03-08T00:58:35.832Z,97815.75
2019-03-08T01:01:05.160Z,97818.84
2019-03-08T01:03:34.712Z,97800.16
2019-03-08T01:06:03.979Z,97808.71
2019-03-08T01:08:33.419Z,97790.37
2019-03-08T01:11:02.719Z,97679.88
2019-03-08T01:13:32.265Z,97785.75
2019-03-08T01:16:01.652Z,97801.23
2019-03-08T01:18:31.364Z,97786.10
2019-03-08T01:21:00.662Z,97739.04
2019-03-08T01:23:30.075Z,97779.55
2019-03-08T01:25:59.380Z,97765.16
2019-03-08T01:28:28.902Z,97770.05
2019-03-08T01:30:58.515Z,97768.23
2019-03-08T01:33:27.811Z,97705.01
2019-03-08T01:35:57.093Z,97748.59
2019-03-08T01:38:26.341Z,97763.84
2019-03-08T01:40:55.797Z,97748.72
2019-03-08T01:43:25.143Z,97748.38
2019-03-08T01:45:54.722Z,97761.81
2019-03-08T01:48:24.055Z,97740.17
2019-03-08T01:50:53.372Z,97737.90
2019-03-08T01:53:22.692Z,97739.11
2019-03-08T01:55:52.057Z,97731.59
2019-03-08T02:01:09.614Z,97726.27
2019-03-08T02:03:39.030Z,97725.67
2019-03-08T02:06:27.311Z,97716.97
2019-03-08T02:08:56.635Z,97708.27
2019-03-08T02:11:25.912Z,97709.24
2019-03-08T02:13:55.318Z,97705.78
2019-03-08T02:16:24.615Z,97649.96
2019-03-08T02:18:54.169Z,97704.84
2019-03-08T02:21:23.455Z,97626.80
2019-03-08T02:24:11.727Z,97702.72
2019-03-08T02:26:41.395Z,97704.38
2019-03-08T02:29:10.694Z,97639.63
2019-03-08T02:31:40.746Z,97688.66
2019-03-08T02:34:10.045Z,97693.06
2019-03-08T02:36:58.322Z,97680.22
2019-03-08T02:39:27.933Z,97677.59
2019-03-08T02:41:57.226Z,97667.38
2019-03-08T02:44:26.698Z,97664.06
2019-03-08T02:47:15.183Z,97678.09
2019-03-08T02:49:44.491Z,97672.27
2019-03-08T02:52:13.998Z,97680.37
2019-03-08T02:54:43.307Z,97654.53
2019-03-08T02:57:12.809Z,97658.36
2019-03-08T02:59:42.103Z,97654.78
2019-03-08T03:02:11.488Z,97659.20
2019-03-08T03:04:42.648Z,97599.23
2019-03-08T03:07:11.944Z,97644.31
2019-03-08T03:09:41.250Z,97642.66
2019-03-08T03:12:10.611Z,97641.69
2019-03-08T03:14:40.482Z,97639.45
2019-03-08T03:17:09.917Z,97634.55
2019-03-08T03:19:39.713Z,97637.30
2019-03-08T03:22:09.151Z,97630.28
2019-03-08T03:24:38.922Z,97630.53
2019-03-08T03:27:08.205Z,97637.67
2019-03-08T03:29:37.839Z,97621.96
2019-03-08T03:32:07.394Z,97620.31
2019-03-08T03:34:36.971Z,97622.68
2019-03-08T03:37:25.351Z,97624.23
2019-03-08T03:39:54.665Z,97621.00
2019-03-08T03:42:24.544Z,97636.61
2019-03-08T03:44:53.819Z,97573.23
2019-03-08T03:47:23.529Z,97627.70
2019-03-08T03:49:52.803Z,97569.55
2019-03-08T03:52:22.194Z,97624.83
2019-03-08T03:54:51.521Z,97546.03
2019-03-08T03:57:20.804Z,97618.53
2019-03-08T03:59:50.199Z,97623.42
2019-03-08T04:02:19.560Z,97613.89
2019-03-08T04:04:48.834Z,97612.23
2019-03-08T04:07:18.224Z,97616.16
2019-03-08T04:09:47.781Z,97610.34
2019-03-08T04:12:17.186Z,97610.69
2019-03-08T04:14:46.656Z,97600.80
2019-03-08T04:17:15.951Z,97605.23
2019-03-08T04:19:45.332Z,97599.16
2019-03-08T04:22:14.604Z,97602.48
2019-03-08T04:24:44.217Z,97596.53
2019-03-08T04:27:13.764Z,97589.02
2019-03-08T04:29:43.850Z,97584.76
2019-03-08T04:32:13.141Z,97587.13
2019-03-08T04:34:42.508Z,97574.04
2019-03-08T04:37:13.531Z,97588.44
2019-03-08T04:39:42.895Z,97591.05
2019-03-08T04:42:12.222Z,97586.28
2019-03-08T04:50:26.672Z,97577.25
2019-03-08T04:52:55.993Z,97580.12
2019-03-08T04:55:25.301Z,97583.80
2019-03-08T04:57:54.998Z,97578.22
2019-03-08T05:00:24.425Z,97577.25
2019-03-08T05:08:22.872Z,97565.22
2019-03-08T05:10:52.388Z,97563.23
2019-03-08T05:13:40.913Z,97566.19
2019-03-08T05:16:10.244Z,97556.31
2019-03-08T05:18:39.647Z,97562.26
2019-03-08T05:21:28.114Z,97564.29
2019-03-08T05:23:57.395Z,97561.80
2019-03-08T05:26:27.176Z,97559.64
2019-03-08T05:28:56.461Z,97555.50
2019-03-08T05:31:25.895Z,97558.93
2019-03-08T05:33:55.266Z,97554.53
2019-03-08T05:36:43.553Z,97543.35
2019-03-08T05:39:12.969Z,97543.48
2019-03-08T05:42:01.260Z,97539.67
2019-03-08T05:44:49.511Z,97543.13
2019-03-08T05:47:30.805Z,97542.80
2019-03-08T05:50:00.439Z,97551.83
2019-03-08T05:52:29.719Z,97548.97
2019-03-08T05:55:00.733Z,97544.78
2019-03-08T05:57:30.028Z,97540.17
2019-03-08T05:59:59.329Z,97542.42
2019-03-08T06:02:28.672Z,97543.05
2019-03-08T06:04:58.003Z,97528.03
2019-03-08T06:07:27.319Z,97525.23
2019-03-08T06:10:34.779Z,97531.36
2019-03-08T06:15:44.315Z,97528.74
2019-03-08T06:18:33.140Z,97466.73
2019-03-08T06:21:02.485Z,97520.30
2019-03-08T06:23:32.191Z,97524.56
2019-03-08T06:28:49.826Z,97522.41
2019-03-08T06:31:19.250Z,97527.43
2019-03-08T06:33:48.616Z,97526.13
2019-03-08T06:36:18.203Z,97518.36
2019-03-08T06:38:47.621Z,97523.13
2019-03-08T06:41:17.014Z,97519.55
2019-03-08T06:43:46.325Z,97519.20
2019-03-08T06:46:15.639Z,97515.41
2019-03-08T06:48:44.923Z,97519.33
2019-03-08T06:51:14.431Z,97529.33
2019-03-08T06:53:43.761Z,97524.91
2019-03-08T06:56:13.111Z,97517.89
2019-03-08T06:59:01.383Z,97524.22
2019-03-08T07:01:36.818Z,97524.91
2019-03-08T07:06:54.580Z,97541.45
2019-03-08T07:09:23.922Z,97536.22
2019-03-08T07:11:53.368Z,97540.36
2019-03-08T07:14:41.722Z,97540.61
2019-03-08T07:17:11.045Z,97543.94
2019-03-08T07:22:45.014Z,97551.29
2019-03-08T07:25:31.718Z,97553.66
2019-03-08T07:28:19.897Z,97556.86
2019-03-08T07:31:08.112Z,97557.08
2019-03-08T07:33:56.445Z,97562.66
2019-03-08T07:37:03.639Z,97571.60
2019-03-08T07:39:52.146Z,97576.25
2019-03-08T07:42:34.733Z,97596.12
2019-03-08T07:45:23.265Z,97592.92
2019-03-08T07:48:09.801Z,97597.19
2019-03-08T07:50:58.138Z,97601.48
2019-03-08T07:53:34.820Z,97609.34
2019-03-08T07:56:23.107Z,97608.53
2019-03-08T07:59:04.039Z,97625.30
2019-03-08T08:01:52.239Z,97630.53
2019-03-08T08:04:40.495Z,97643.52
2019-03-08T08:07:28.771Z,97657.95
2019-03-08T08:10:16.981Z,97669.73
2019-03-08T08:13:05.254Z,97674.63
2019-03-08T08:15:53.476Z,97681.17
2019-03-08T08:18:41.930Z,97685.81
2019-03-08T08:21:30.100Z,97698.09
2019-03-08T08:24:18.348Z,97710.19
2019-03-08T08:27:07.141Z,97711.27
2019-03-08T08:29:55.539Z,97722.21
2019-03-08T08:32:43.795Z,97726.72
2019-03-08T08:35:32.384Z,97735.52
2019-03-08T08:38:20.652Z,97744.91
2019-03-08T08:41:09.009Z,97755.37
2019-03-08T08:43:57.260Z,97731.09
2019-03-08T08:49:26.897Z,97771.98
2019-03-08T08:52:15.300Z,97788.36
2019-03-08T08:55:03.594Z,97786.24
2019-03-08T08:57:38.728Z,97795.39
2019-03-08T09:00:22.706Z,97813.42
2019-03-08T09:03:10.974Z,97743.83
2019-03-08T09:05:59.320Z,97814.88
2019-03-08T09:08:47.643Z,97819.38
2019-03-08T09:11:44.237Z,97836.25
2019-03-08T09:14:20.218Z,97845.29
2019-03-08T09:17:08.499Z,97850.17
2019-03-08T09:19:57.012Z,97866.20
2019-03-08T09:22:45.324Z,97867.61
2019-03-08T09:25:33.807Z,97887.25
2019-03-08T09:28:13.530Z,97898.91
2019-03-08T09:31:01.715Z,97905.95
2019-03-08T09:33:35.890Z,97911.93
2019-03-08T09:36:24.227Z,97933.66
2019-03-08T09:39:31.446Z,97941.88
2019-03-08T09:42:31.734Z,97966.06
2019-03-08T09:45:20.130Z,97963.02
2019-03-08T09:48:08.450Z,97991.16
2019-03-08T09:50:45.916Z,97986.97
2019-03-08T09:53:34.175Z,98005.69
2019-03-08T09:56:22.378Z,98014.27
2019-03-08T09:59:02.300Z,98018.75
2019-03-08T10:02:05.441Z,98033.20
2019-03-08T10:04:57.403Z,98035.48
2019-03-08T10:07:46.784Z,98049.33
2019-03-08T10:10:26.245Z,98054.66
2019-03-08T10:13:14.449Z,98073.30
2019-03-08T10:15:49.692Z,98087.11
2019-03-08T10:18:37.875Z,98093.06
2019-03-08T10:21:13.148Z,98113.69
2019-03-08T10:23:55.313Z,98106.48
2019-03-08T10:26:43.687Z,98127.95
2019-03-08T10:29:23.470Z,98122.72
2019-03-08T10:32:11.940Z,98144.70
2019-03-08T10:35:23.952Z,98162.76
2019-03-08T10:38:09.168Z,98162.73
2019-03-08T10:40:57.347Z,98176.67
2019-03-08T10:43:45.602Z,98185.27
2019-03-08T10:46:33.771Z,98193.11
2019-03-08T10:49:22.007Z,98206.53
2019-03-08T10:52:02.323Z,98217.59
2019-03-08T10:54:50.711Z,98252.09
2019-03-08T10:57:38.918Z,98237.88
2019-03-08T11:00:32.680Z,98244.85
2019-03-08T11:03:20.947Z,98248.82
2019-03-08T11:06:09.142Z,98274.94
2019-03-08T11:08:57.506Z,98299.10
2019-03-08T11:11:56.937Z,98267.16
2019-03-08T11:14:45.366Z,98319.41
2019-03-08T11:17:33.855Z,98275.75
2019-03-08T11:20:22.109Z,98271.48
2019-03-08T11:23:10.423Z,98264.39
2019-03-08T11:25:58.653Z,98336.07
2019-03-08T11:28:47.020Z,98345.87
2019-03-08T11:31:35.385Z,98346.87
2019-03-08T11:34:09.204Z,98354.68
2019-03-08T11:36:57.523Z,98362.06
2019-03-08T11:40:04.925Z,98367.70
2019-03-08T11:42:53.175Z,98392.73
2019-03-08T11:45:41.564Z,98334.25
2019-03-08T11:48:18.270Z,98408.17
2019-03-08T11:51:06.728Z,98406.67
2019-03-08T11:53:56.429Z,98417.75
2019-03-08T11:56:57.726Z,98421.41
2019-03-08T11:59:46.219Z,98439.20
2019-03-08T12:02:37.711Z,98454.52
2019-03-08T12:05:25.827Z,98459.67
2019-03-08T12:08:14.177Z,98478.25
2019-03-08T12:11:02.364Z,98424.19
2019-03-08T12:13:50.701Z,98493.38
2019-03-08T12:16:38.876Z,98516.10
2019-03-08T12:19:16.921Z,98522.63
2019-03-08T12:22:05.226Z,98532.13
2019-03-08T12:27:47.119Z,98552.33
2019-03-08T12:30:35.384Z,98556.59
2019-03-08T12:33:23.672Z,98561.62
2019-03-08T12:36:12.095Z,98586.80
2019-03-08T12:38:51.979Z,98560.39
2019-03-08T12:41:40.246Z,98610.70
2019-03-08T12:44:16.988Z,98623.88
2019-03-08T12:47:05.197Z,98617.40
2019-03-08T12:49:53.983Z,98625.12
2019-03-08T12:52:44.606Z,98631.70
2019-03-08T12:55:32.903Z,98642.86
2019-03-08T12:58:21.086Z,98642.46
2019-03-08T13:00:56.310Z,98657.80
2019-03-08T13:04:03.736Z,98657.84
2019-03-08T13:06:52.054Z,98680.41
2019-03-08T13:09:40.438Z,98676.86
2019-03-08T13:12:09.904Z,98694.52
2019-03-08T13:14:39.206Z,98703.67
2019-03-08T13:17:08.591Z,98700.16
2019-03-08T13:19:37.984Z,98698.73
2019-03-08T13:22:07.299Z,98696.81
2019-03-08T13:24:36.589Z,98710.48
2019-03-08T13:27:24.823Z,98704.78
2019-03-08T13:29:54.431Z,98715.78
2019-03-08T13:35:12.840Z,98727.92
2019-03-08T13:37:42.314Z,98734.34
2019-03-08T13:40:12.669Z,98734.14
2019-03-08T13:42:42.631Z,98721.33
2019-03-08T13:45:14.346Z,98739.88
2019-03-08T13:47:44.044Z,98742.53
2019-03-08T13:50:13.790Z,98746.50
2019-03-08T13:52:43.301Z,98744.86
2019-03-08T13:55:13.143Z,98699.08
2019-03-08T13:57:42.502Z,98767.52
2019-03-08T14:00:14.822Z,98768.83
2019-03-08T14:02:44.100Z,98786.41
2019-03-08T14:05:33.966Z,98808.31
2019-03-08T14:08:03.433Z,98800.66
2019-03-08T14:10:32.796Z,98816.46
2019-03-08T14:13:02.532Z,98826.53
2019-03-08T14:15:31.830Z,98765.86
2019-03-08T14:20:55.078Z,98842.07
2019-03-08T14:23:24.412Z,98858.69
2019-03-08T14:25:55.437Z,98863.91
2019-03-08T14:28:25.033Z,98866.89
2019-03-08T14:31:13.959Z,98826.23
2019-03-08T14:33:43.499Z,98890.03
2019-03-08T14:36:14.569Z,98890.63
2019-03-08T14:38:55.427Z,98887.92
2019-03-08T14:41:43.980Z,98905.20
2019-03-08T14:44:32.427Z,98914.12
2019-03-08T14:47:20.744Z,98877.88
2019-03-08T14:49:50.682Z,98925.64
2019-03-08T14:52:21.581Z,98928.88
2019-03-08T14:54:51.018Z,98940.42
2019-03-08T14:57:27.153Z,98946.93
2019-03-08T14:59:53.110Z,98954.60
2019-03-08T15:02:23.069Z,98962.61
2019-03-08T15:04:52.363Z,98967.67
2019-03-08T15:07:21.984Z,98973.00
2019-03-08T15:09:51.296Z,98995.21
2019-03-08T15:12:20.751Z,98994.67
2019-03-08T15:14:51.895Z,98991.52
2019-03-08T15:17:21.194Z,99013.45
2019-03-08T15:19:50.526Z,99023.90
2019-03-08T15:22:19.856Z,99015.89
2019-03-08T15:24:49.523Z,99027.02
2019-03-08T15:27:20.558Z,99035.09
2019-03-08T15:29:54.584Z,99036.20
2019-03-08T15:32:21.116Z,99042.24
2019-03-08T15:34:50.568Z,99050.91
2019-03-08T15:37:19.939Z,99056.61
2019-03-08T15:39:49.994Z,99077.08
2019-03-08T15:42:19.289Z,99076.41
2019-03-08T15:45:07.689Z,99075.56
2019-03-08T15:47:37.661Z,99096.77
2019-03-08T15:50:26.241Z,99092.78
2019-03-08T15:52:55.515Z,99115.42
2019-03-08T15:55:25.202Z,99120.80
2019-03-08T15:57:54.486Z,99121.95
2019-03-08T16:00:24.087Z,99132.13
2019-03-08T16:02:54.586Z,99137.91
2019-03-08T16:05:27.989Z,99141.26
2019-03-08T16:07:57.857Z,99141.26
2019-03-08T16:10:26.370Z,99144.80
2019-03-08T16:13:14.695Z,99141.41
2019-03-08T16:15:44.024Z,99142.63
2019-03-08T16:18:13.413Z,99151.64
2019-03-08T16:20:42.871Z,99152.57
2019-03-08T16:23:12.240Z,99148.16
2019-03-08T16:36:45.877Z,99158.50
2019-03-08T16:39:34.370Z,99171.55
2019-03-08T16:42:22.335Z,99174.66
2019-03-08T16:45:10.306Z,99178.80
2019-03-08T16:47:58.309Z,99186.48
2019-03-08T16:50:46.283Z,99201.61
2019-03-08T16:53:32.648Z,99210.27
2019-03-08T16:56:19.268Z,99203.13
2019-03-08T16:59:20.245Z,99213.63
2019-03-08T17:02:08.539Z,99209.51
2019-03-08T17:04:56.788Z,99214.72
2019-03-08T17:07:45.059Z,99222.63
2019-03-08T17:10:53.665Z,99210.03
2019-03-08T17:13:49.161Z,99222.66
2019-03-08T17:16:37.370Z,99230.44
2019-03-08T17:19:25.552Z,99233.02
2019-03-08T17:22:10.795Z,99235.03
2019-03-08T17:24:59.235Z,99237.86
2019-03-08T17:27:47.799Z,99237.41
2019-03-08T17:30:36.566Z,99245.70
2019-03-08T17:33:25.179Z,99252.70
2019-03-08T17:36:13.482Z,99273.31
2019-03-08T17:38:48.423Z,99259.76
2019-03-08T17:41:36.800Z,99277.16
2019-03-08T17:44:24.998Z,99278.38
2019-03-08T17:47:13.168Z,99302.98
2019-03-08T17:50:16.269Z,99295.74
2019-03-08T17:53:04.696Z,99298.53
2019-03-08T17:55:53.052Z,99310.22
2019-03-08T17:58:41.271Z,99308.28
2019-03-08T18:01:29.475Z,99327.58
2019-03-08T18:04:15.574Z,99318.73
2019-03-08T18:07:03.761Z,99317.73
2019-03-08T18:09:52.056Z,99307.58
2019-03-08T18:12:40.414Z,99317.25
2019-03-08T18:15:19.315Z,99327.84
2019-03-08T18:18:07.584Z,99316.64
2019-03-08T18:20:47.560Z,99331.47
2019-03-08T18:23:35.873Z,99337.63
2019-03-08T18:26:35.713Z,99339.38
2019-03-08T18:29:23.955Z,99337.06
2019-03-08T18:32:12.231Z,99349.68
2019-03-08T18:35:00.607Z,99350.53
2019-03-08T18:40:57.748Z,99348.75
2019-03-08T18:43:45.903Z,99346.58
2019-03-08T18:46:34.146Z,99373.27
2019-03-08T18:49:22.443Z,99361.06
2019-03-08T18:52:21.966Z,99326.61
2019-03-08T18:55:10.354Z,99375.31
2019-03-08T18:57:58.634Z,99336.03
2019-03-08T19:00:46.845Z,99388.38
2019-03-08T19:03:35.070Z,99389.16
2019-03-08T19:09:16.821Z,99396.70
2019-03-08T19:12:10.498Z,99403.33
2019-03-08T19:14:58.725Z,99399.67
2019-03-08T19:17:47.235Z,99410.88
2019-03-08T19:20:35.754Z,99413.34
2019-03-08T19:23:23.923Z,99419.43
2019-03-08T19:26:09.396Z,99420.81
2019-03-08T19:28:54.047Z,99425.80
2019-03-08T19:31:42.318Z,99425.02
2019-03-08T19:34:30.786Z,99432.22
2019-03-08T19:37:19.017Z,99428.44
2019-03-08T19:40:07.352Z,99421.30
2019-03-08T19:42:48.389Z,99424.95
2019-03-08T19:45:36.749Z,99418.04
2019-03-08T19:48:25.151Z,99421.09
2019-03-08T19:54:15.221Z,99437.13
2019-03-08T19:57:03.471Z,99442.91
2019-03-08T19:59:38.703Z,99445.66
2019-03-08T20:02:30.035Z,99453.48
2019-03-08T20:05:18.265Z,99450.88
2019-03-08T20:08:06.516Z,99459.50
2019-03-08T20:10:54.739Z,99449.19
2019-03-08T20:13:42.934Z,99453.87
2019-03-08T20:16:31.231Z,99450.09
2019-03-08T20:19:19.423Z,99462.63
2019-03-08T20:22:07.833Z,99462.63
2019-03-08T20:24:56.055Z,99470.16
2019-03-08T20:27:44.409Z,99470.47
2019-03-08T20:30:32.601Z,99474.25
2019-03-08T20:33:20.794Z,99474.38
2019-03-08T20:35:58.113Z,99467.06
2019-03-08T20:38:46.345Z,99475.83
2019-03-08T20:41:34.574Z,99473.73
2019-03-08T20:44:22.810Z,99477.13
2019-03-08T20:46:59.228Z,99479.37
2019-03-08T20:49:28.538Z,99483.88
2019-03-08T20:51:58.397Z,99478.95
2019-03-08T20:54:27.697Z,99475.45
2019-03-08T20:56:57.620Z,99483.42
2019-03-08T20:59:26.929Z,99483.28
2019-03-08T21:01:56.358Z,99482.50
2019-03-08T21:04:25.664Z,99425.93
2019-03-08T21:06:55.303Z,99480.95
2019-03-08T21:09:24.660Z,99421.05
2019-03-08T21:11:54.386Z,99499.43
2019-03-08T21:14:23.692Z,99495.03
2019-03-08T21:16:53.075Z,99489.67
2019-03-08T21:19:22.357Z,99487.85
2019-03-08T21:21:53.375Z,99492.70
2019-03-08T21:24:22.857Z,99494.89
2019-03-08T21:26:52.142Z,99490.33
2019-03-08T21:29:21.439Z,99494.70
2019-03-08T21:31:50.738Z,99489.09
2019-03-08T21:34:21.837Z,99488.03
2019-03-08T21:36:51.291Z,99486.72
2019-03-08T21:39:20.795Z,99483.15
2019-03-08T21:41:50.107Z,99485.20
2019-03-08T21:47:08.303Z,99486.66
2019-03-08T21:49:39.337Z,99487.00
2019-03-08T21:52:08.777Z,99495.97
2019-03-08T21:54:38.061Z,99509.75
2019-03-08T21:57:07.442Z,99499.30
2019-03-08T21:59:36.829Z,99512.36
2019-03-08T22:02:06.379Z,99508.00
2019-03-08T22:04:54.548Z,99485.90
2019-03-08T22:07:23.819Z,99519.69
2019-03-08T22:10:12.647Z,99524.91
2019-03-08T22:12:42.120Z,99459.09
2019-03-08T22:17:52.547Z,99519.03
2019-03-08T22:23:10.549Z,99523.80
2019-03-08T22:28:28.850Z,99458.77
2019-03-08T22:30:58.141Z,99518.38
2019-03-08T22:33:46.463Z,99512.61
2019-03-08T22:36:15.986Z,99509.92
2019-03-08T22:38:45.272Z,99446.38
2019-03-08T22:41:14.812Z,99509.85
2019-03-08T22:43:44.153Z,99507.23
2019-03-08T22:46:13.653Z,99497.20
2019-03-08T22:48:43.092Z,99505.04
2019-03-08T22:51:31.437Z,99502.42
2019-03-08T22:54:00.793Z,99499.02
2019-03-08T22:56:49.082Z,99495.48
2019-03-08T22:59:18.429Z,99497.20
2019-03-08T23:02:27.271Z,99492.49
2019-03-08T23:04:56.725Z,99488.95
2019-03-08T23:07:26.059Z,99479.81
2019-03-08T23:09:55.501Z,99468.47
2019-03-08T23:12:24.857Z,99471.08
2019-03-08T23:14:54.314Z,99459.84
2019-03-08T23:17:44.250Z,99468.84
2019-03-08T23:20:13.523Z,99461.28
2019-03-08T23:22:43.162Z,99466.75
2019-03-08T23:25:12.458Z,99468.74
2019-03-08T23:30:36.238Z,99467.34
2019-03-08T23:33:05.858Z,99472.56
2019-03-08T23:35:35.126Z,99462.88
2019-03-08T23:40:39.915Z,99466.27
2019-03-08T23:43:28.129Z,99458.81
2019-03-08T23:45:57.480Z,99453.07
2019-03-08T23:48:27.021Z,99430.59
2019-03-08T23:50:56.308Z,99440.01
2019-03-08T23:53:44.653Z,99440.53
2019-03-08T23:56:14.381Z,99431.24
2019-03-08T23:58:43.769Z,99429.01
